Latest Weather Observations for Gannett Cay

IDQ60801

Issued at 7:06 pm EST Sunday 19 April 2015 (issued every 30 minutes, with the page automatically refreshed every 10 minutes)

About weather observations | Map of weather stations | Latest weather observations for QLD | Other Formats
Station Details ID: 200831 Name: GANNET CAY Lat: -21.98 Lon: 152.47 Height: 2.3 m
Data from the previous 72 hours. | See also: Recent months for locations in Queensland
Date/Time
EST
Temp
°C
App
Temp
°C
Dew
Point
Rel
Hum
%
Delta-T
°C
Wind Press
QNH
hPa
Press
MSL
hPa
Rain
since 9 am
mm
Dir
 
Spd
km/h
Gust
km/h
Spd
kts
Gust
kts
19/07:00pm 26.0 - - - - E 24 28 13 15 1015.8 - -
19/06:30pm 26.0 - - - - ESE 22 26 12 14 1015.6 1015.7 -
19/06:00pm 26.1 - - - - ESE 19 22 10 12 1015.6 - -
19/05:30pm 26.2 - - - - ESE 19 22 10 12 1015.3 1015.4 -
19/05:00pm 26.5 - - - - ESE 19 24 10 13 1015.2 - -
19/04:30pm 26.8 - - - - ESE 17 20 9 11 1014.9 1015.0 -
19/04:00pm 27.1 - - - - ESE 17 20 9 11 1014.9 - -
19/03:30pm 26.8 - - - - E 17 20 9 11 1014.7 1014.8 -
19/03:00pm 26.5 - - - - E 17 19 9 10 1014.8 - -
19/02:30pm 26.4 - - - - E 17 19 9 10 1014.9 1015.0 -
19/02:00pm 26.5 - - - - E 15 17 8 9 1014.8 - -
19/01:30pm 26.4 - - - - ENE 15 19 8 10 1015.2 1015.3 -
19/01:00pm 26.4 - - - - E 19 22 10 12 1015.6 - -
19/12:30pm 26.4 - - - - ENE 20 24 11 13 1015.9 1016.0 -
19/12:00pm 26.3 - - - - ENE 22 26 12 14 1016.0 - -
19/11:30am 26.6 - - - - ENE 26 30 14 16 1016.4 1016.5 -
19/11:00am 26.3 - - - - NE 22 26 12 14 1016.7 - -
19/10:30am 25.4 - - - - NE 26 30 14 16 1017.3 1017.4 -
19/10:00am 25.5 - - - - NE 20 28 11 15 1017.6 - -
19/09:30am 26.2 - - - - E 22 26 12 14 1017.7 1017.8 -
19/09:00am 25.9 - - - - E 26 28 14 15 1017.6 - -
19/08:30am 25.9 - - - - E 24 30 13 16 1017.4 1017.5 -
19/08:00am 25.9 - - - - E 26 30 14 16 1016.9 - -
19/07:30am 25.9 - - - - E 26 32 14 17 1016.7 1016.8 -
19/07:00am 25.8 - - - - E 24 26 13 14 1016.6 - -
19/06:30am 25.8 - - - - E 22 26 12 14 1016.6 1016.7 -
19/06:00am 25.4 - - - - E 20 24 11 13 1016.3 - -
19/05:30am 25.4 - - - - ESE 20 26 11 14 1015.9 1016.0 -
19/05:00am 25.5 - - - - ESE 24 28 13 15 1015.9 - -
19/04:30am 25.4 - - - - ESE 24 30 13 16 1015.7 1015.8 -
19/04:00am 25.3 - - - - ESE 28 32 15 17 1015.4 - -
19/03:30am 25.6 - - - - ESE 22 24 12 13 1015.5 1015.6 -
19/03:00am 25.6 - - - - E 20 22 11 12 1015.7 - -
19/02:30am 24.8 - - - - E 32 39 17 21 1015.9 1016.0 -
19/02:00am 25.7 - - - - E 26 30 14 16 1016.2 - -
19/01:30am 25.6 - - - - E 28 32 15 17 1016.6 1016.7 -
19/01:00am 25.8 - - - - E 28 32 15 17 1016.8 - -
19/12:30am 25.8 - - - - E 30 33 16 18 1017.1 1017.2 -
19/12:00am 25.9 - - - - E 30 35 16 19 1017.4 - -
 
Date/Time
EST
Temp
°C
App
Temp
°C
Dew
Point
Rel
Hum
%
Delta-T
°C
Wind Press
QNH
hPa
Press
MSL
hPa
Rain
since 9 am
mm
Dir
 
Spd
km/h
Gust
km/h
Spd
kts
Gust
kts
18/11:30pm 25.8 - - - - E 32 35 17 19 1017.5 1017.6 -
18/11:00pm 25.7 - - - - E 32 35 17 19 1017.7 - -
18/10:30pm 25.7 - - - - E 33 39 18 21 1017.7 1017.8 -
18/10:00pm 25.9 - - - - E 35 41 19 22 1017.7 - -
18/09:30pm 26.0 - - - - E 35 41 19 22 1017.8 1017.9 -
18/09:00pm 26.0 - - - - E 37 41 20 22 1017.8 - -
18/08:30pm 26.1 - - - - E 35 39 19 21 1017.7 1017.8 -
18/08:00pm 26.0 - - - - E 33 39 18 21 1017.4 - -
18/07:30pm 26.0 - - - - E 33 39 18 21 1017.0 1017.1 -
18/07:00pm 26.1 - - - - E 32 37 17 20 1016.8 - -
18/06:30pm 26.0 - - - - E 33 37 18 20 1016.6 1016.7 -
18/06:00pm 26.1 - - - - E 33 37 18 20 1016.4 - -
18/05:30pm 26.2 - - - - E 33 39 18 21 1016.1 1016.2 -
18/05:00pm 26.3 - - - - E 33 39 18 21 1016.0 - -
18/04:30pm 26.5 - - - - E 33 37 18 20 1016.0 1016.1 -
18/04:00pm 26.3 - - - - E 33 37 18 20 1015.9 - -
18/03:30pm 26.4 - - - - E 33 39 18 21 1015.8 1015.9 -
18/03:00pm 26.3 - - - - E 32 35 17 19 1015.9 - -
18/02:30pm 26.3 - - - - E 32 35 17 19 1015.7 1015.8 -
18/02:00pm 26.0 - - - - E 35 41 19 22 1015.8 - -
18/01:30pm 26.4 - - - - E 33 41 18 22 1016.2 1016.3 -
18/01:00pm 25.5 - - - - E 24 28 13 15 1016.5 - -
18/12:30pm 25.9 - - - - E 32 39 17 21 1016.8 1016.9 -
18/12:00pm 25.9 - - - - E 33 39 18 21 1017.2 - -
18/11:30am 25.8 - - - - E 35 41 19 22 1017.6 1017.7 -
18/11:00am 26.0 - - - - E 37 43 20 23 1018.1 - -
18/10:30am 25.8 - - - - E 35 41 19 22 1018.5 1018.6 -
18/10:00am 25.2 - - - - E 35 39 19 21 1018.5 - -
18/09:30am 25.6 - - - - E 41 48 22 26 1018.5 1018.6 -
18/09:00am 25.4 - - - - E 39 46 21 25 1018.3 - -
18/08:30am 25.3 - - - - E 44 50 24 27 1018.3 1018.4 -
18/08:00am 25.7 - - - - E 43 46 23 25 1018.3 - -
18/07:30am 26.0 - - - - E 41 46 22 25 1018.0 1018.1 -
18/07:00am 25.7 - - - - E 39 46 21 25 1017.7 - -
18/06:30am 25.0 - - - - E 32 44 17 24 1017.5 1017.6 -
18/06:29am 24.9 - - - - E 32 50 17 27 1017.5 - -
18/06:00am 25.9 - - - - E 37 43 20 23 1016.9 - -
18/05:30am 26.0 - - - - E 39 44 21 24 1016.6 1016.7 -
18/05:00am 25.8 - - - - E 41 44 22 24 1016.4 - -
18/04:30am 25.8 - - - - E 37 43 20 23 1016.1 1016.2 -
18/04:00am 25.9 - - - - E 39 46 21 25 1016.1 - -
18/03:30am 25.6 - - - - E 37 43 20 23 1016.1 1016.2 -
18/03:00am 25.6 - - - - E 37 46 20 25 1016.1 - -
18/02:30am 25.7 - - - - E 41 46 22 25 1016.3 1016.4 -
18/02:00am 26.0 - - - - E 41 46 22 25 1016.5 - -
18/01:30am 25.8 - - - - ENE 41 46 22 25 1016.7 1016.8 -
18/01:00am 25.8 - - - - ENE 41 48 22 26 1016.9 - -
18/12:30am 26.0 - - - - E 41 48 22 26 1017.2 1017.3 -
18/12:00am 26.0 - - - - ENE 35 43 19 23 1017.7 - -
 
Date/Time
EST
Temp
°C
App
Temp
°C
Dew
Point
Rel
Hum
%
Delta-T
°C
Wind Press
QNH
hPa
Press
MSL
hPa
Rain
since 9 am
mm
Dir
 
Spd
km/h
Gust
km/h
Spd
kts
Gust
kts
17/11:30pm 25.9 - - - - E 41 44 22 24 1017.8 1017.9 -
17/11:00pm 25.8 - - - - E 41 46 22 25 1017.9 - -
17/10:30pm 26.1 - - - - E 39 46 21 25 1018.1 1018.2 -
17/10:00pm 26.0 - - - - E 44 50 24 27 1018.1 - -
17/09:30pm 26.0 - - - - E 44 54 24 29 1018.1 1018.2 -
17/09:00pm 26.1 - - - - E 46 54 25 29 1018.1 - -
17/08:30pm 26.0 - - - - E 46 54 25 29 1018.0 1018.1 -
17/08:00pm 26.1 - - - - E 46 54 25 29 1017.6 - -
17/07:30pm 25.1 - - - - ESE 33 39 18 21 1017.4 1017.5 -
17/07:00pm 25.4 - - - - E 35 50 19 27 1017.1 - -
17/06:30pm 25.7 - - - - ESE 39 44 21 24 1016.8 1016.9 -
17/06:00pm 26.0 - - - - E 39 46 21 25 1016.5 - -
17/05:30pm 25.8 - - - - E 41 46 22 25 1016.5 1016.6 -
17/05:00pm 25.6 - - - - E 37 44 20 24 1016.3 - -
17/04:30pm 24.8 - - - - ESE 24 37 13 20 1016.3 1016.4 -
17/04:18pm 24.3 - - - - E 33 52 18 28 1016.1 - -
17/04:00pm 25.5 - - - - E 43 50 23 27 1016.0 - -
17/03:30pm 26.0 - - - - E 37 43 20 23 1015.9 1016.0 -
17/03:00pm 25.5 - - - - E 43 48 23 26 1016.0 - -
17/02:30pm 25.6 - - - - ESE 50 57 27 31 1016.3 1016.4 -
17/02:00pm 26.2 - - - - E 39 44 21 24 1016.4 - -
17/01:30pm 26.5 - - - - ESE 35 41 19 22 1016.7 1016.8 -
17/01:00pm 26.4 - - - - E 39 44 21 24 1017.0 - -
17/12:30pm 26.3 - - - - E 37 43 20 23 1017.4 1017.5 -
17/12:00pm 26.2 - - - - ESE 37 43 20 23 1017.9 - -
17/11:30am 26.1 - - - - ESE 39 46 21 25 1018.4 1018.5 -
17/11:00am 26.2 - - - - ESE 41 46 22 25 1018.9 - -
17/10:30am 26.4 - - - - ESE 41 46 22 25 1019.2 1019.3 -
17/10:00am 26.5 - - - - E 39 44 21 24 1019.4 - -
17/09:30am 26.4 - - - - E 41 46 22 25 1019.5 1019.6 -
17/09:00am 26.3 - - - - E 39 44 21 24 1019.4 - -
17/08:30am 26.2 - - - - E 39 46 21 25 1019.5 1019.6 -
17/08:17am 26.3 - - - - E 39 46 21 25 1019.4 - -
17/08:00am 25.6 - - - - ESE 32 35 17 19 1019.3 - -
17/07:30am 25.4 - - - - ESE 37 41 20 22 1019.2 1019.3 -
17/07:00am 25.9 - - - - E 39 46 21 25 1018.7 - -
17/06:30am 25.4 - - - - ESE 35 44 19 24 1018.7 1018.8 -
17/06:00am 25.5 - - - - ESE 35 43 19 23 1018.3 - -
17/05:30am 25.2 - - - - ESE 39 43 21 23 1018.1 1018.2 -
17/05:11am 25.2 - - - - E 39 44 21 24 1018.0 - -
17/05:00am 23.9 - - - - SE 37 44 20 24 1018.0 - -
17/04:30am 24.4 - - - - SE 32 35 17 19 1017.6 1017.7 -
17/04:00am 25.1 - - - - ESE 41 48 22 26 1017.6 - -
17/03:30am 25.6 - - - - E 37 43 20 23 1017.5 1017.6 -
17/03:00am 25.7 - - - - E 39 44 21 24 1017.6 - -
17/02:30am 25.6 - - - - ESE 43 48 23 26 1017.7 1017.8 -
17/02:00am 25.6 - - - - ESE 41 44 22 24 1018.1 - -
17/01:30am 25.7 - - - - ESE 41 48 22 26 1018.4 1018.5 -
17/01:00am 25.6 - - - - E 41 44 22 24 1018.6 - -
17/12:30am 25.2 - - - - ESE 41 46 22 25 1019.0 1019.1 -
17/12:00am 25.8 - - - - ESE 33 41 18 22 1019.2 - -
 
Date/Time
EST
Temp
°C
App
Temp
°C
Dew
Point
Rel
Hum
%
Delta-T
°C
Wind Press
QNH
hPa
Press
MSL
hPa
Rain
since 9 am
mm
Dir
 
Spd
km/h
Gust
km/h
Spd
kts
Gust
kts
16/11:30pm 25.9 - - - - ESE 41 46 22 25 1019.6 1019.7 -
16/11:00pm 25.7 - - - - ESE 35 43 19 23 1019.8 - -
16/10:30pm 25.9 - - - - ESE 39 44 21 24 1020.2 1020.3 -
16/10:00pm 25.8 - - - - ESE 41 46 22 25 1020.3 - -
16/09:30pm 25.8 - - - - ESE 41 46 22 25 1020.3 1020.4 -
16/09:00pm 25.9 - - - - ESE 39 46 21 25 1020.2 - -
16/08:30pm 25.9 - - - - ESE 41 46 22 25 1020.1 1020.2 -
16/08:00pm 25.9 - - - - ESE 41 46 22 25 1019.9 - -
16/07:30pm 25.9 - - - - ESE 37 43 20 23 1019.8 1019.9 -

Other Formats:

Comma delimited format used in spreadsheet applications
http://www.bom.gov.au/fwo/IDQ60801/IDQ60801.94379.axf

JavaScript Object Notation format (JSON) in row-major order
http://www.bom.gov.au/fwo/IDQ60801/IDQ60801.94379.json